sensor_id;sensor_type;location;lat;lon;timestamp;pressure;altitude;pressure_sealevel;temperature;humidity
11936;BME280;6027;48.576;9.180;2023-05-19T00:01:43;97322.56;;;12.83;77.82
11936;BME280;6027;48.576;9.180;2023-05-19T00:04:13;97320.00;;;12.75;78.60
11936;BME280;6027;48.576;9.180;2023-05-19T00:06:39;97315.06;;;12.72;79.02
11936;BME280;6027;48.576;9.180;2023-05-19T00:09:07;97314.22;;;12.71;79.69
11936;BME280;6027;48.576;9.180;2023-05-19T00:11:34;97308.38;;;12.61;80.87
11936;BME280;6027;48.576;9.180;2023-05-19T00:14:01;97303.81;;;12.70;80.61
11936;BME280;6027;48.576;9.180;2023-05-19T00:16:28;97305.66;;;12.69;80.37
11936;BME280;6027;48.576;9.180;2023-05-19T00:18:57;97305.81;;;12.68;77.46
11936;BME280;6027;48.576;9.180;2023-05-19T00:21:24;97304.44;;;12.72;78.31
11936;BME280;6027;48.576;9.180;2023-05-19T00:23:49;97306.66;;;12.68;79.85
11936;BME280;6027;48.576;9.180;2023-05-19T00:26:15;97297.75;;;12.61;79.95
11936;BME280;6027;48.576;9.180;2023-05-19T00:28:40;97306.19;;;12.65;78.98
11936;BME280;6027;48.576;9.180;2023-05-19T00:31:06;97303.53;;;12.65;78.88
11936;BME280;6027;48.576;9.180;2023-05-19T00:33:32;97301.88;;;12.64;80.08
11936;BME280;6027;48.576;9.180;2023-05-19T00:36:01;97300.25;;;12.63;82.07
11936;BME280;6027;48.576;9.180;2023-05-19T00:38:29;97298.59;;;12.62;80.93
11936;BME280;6027;48.576;9.180;2023-05-19T00:40:55;97293.28;;;12.62;82.53
11936;BME280;6027;48.576;9.180;2023-05-19T00:43:20;97297.47;;;12.56;83.23
11936;BME280;6027;48.576;9.180;2023-05-19T00:45:46;97292.63;;;12.60;84.08
11936;BME280;6027;48.576;9.180;2023-05-19T00:50:39;97300.31;;;12.55;81.88
11936;BME280;6027;48.576;9.180;2023-05-19T00:53:06;97295.19;;;12.53;83.23
11936;BME280;6027;48.576;9.180;2023-05-19T00:55:32;97297.03;;;12.53;83.56
11936;BME280;6027;48.576;9.180;2023-05-19T00:57:59;97291.16;;;12.57;83.26
11936;BME280;6027;48.576;9.180;2023-05-19T01:00:24;97284.31;;;12.48;85.30
11936;BME280;6027;48.576;9.180;2023-05-19T01:02:50;97279.25;;;12.53;84.22
11936;BME280;6027;48.576;9.180;2023-05-19T01:05:16;97277.44;;;12.39;83.46
11936;BME280;6027;48.576;9.180;2023-05-19T01:07:41;97280.84;;;12.48;81.99
11936;BME280;6027;48.576;9.180;2023-05-19T01:10:08;97279.38;;;12.45;82.45
11936;BME280;6027;48.576;9.180;2023-05-19T01:12:34;97273.50;;;12.50;83.85
11936;BME280;6027;48.576;9.180;2023-05-19T01:15:01;97274.88;;;12.45;83.23
11936;BME280;6027;48.576;9.180;2023-05-19T01:20:03;97272.59;;;12.42;84.38
11936;BME280;6027;48.576;9.180;2023-05-19T01:30:40;97280.75;;;12.41;84.53
11936;BME280;6027;48.576;9.180;2023-05-19T01:33:09;97288.59;;;12.34;84.33
11936;BME280;6027;48.576;9.180;2023-05-19T01:35:36;97276.25;;;12.27;85.29
11936;BME280;6027;48.576;9.180;2023-05-19T01:38:04;97297.41;;;12.35;85.84
11936;BME280;6027;48.576;9.180;2023-05-19T01:40:32;97298.50;;;12.40;85.46
11936;BME280;6027;48.576;9.180;2023-05-19T01:42:59;97297.84;;;12.38;85.81
11936;BME280;6027;48.576;9.180;2023-05-19T01:45:27;97299.97;;;12.43;86.70
11936;BME280;6027;48.576;9.180;2023-05-19T01:47:55;97294.19;;;12.39;87.09
11936;BME280;6027;48.576;9.180;2023-05-19T01:50:22;97289.59;;;12.33;87.28
11936;BME280;6027;48.576;9.180;2023-05-19T01:52:47;97284.22;;;12.41;86.99
11936;BME280;6027;48.576;9.180;2023-05-19T01:55:13;97283.47;;;12.33;87.32
11936;BME280;6027;48.576;9.180;2023-05-19T02:11:06;97277.44;;;12.09;89.51
11936;BME280;6027;48.576;9.180;2023-05-19T02:13:36;97283.94;;;12.07;90.34
11936;BME280;6027;48.576;9.180;2023-05-19T02:16:06;97276.44;;;12.10;90.15
11936;BME280;6027;48.576;9.180;2023-05-19T02:18:32;97284.31;;;12.19;89.40
11936;BME280;6027;48.576;9.180;2023-05-19T02:20:58;97283.81;;;12.00;90.12
11936;BME280;6027;48.576;9.180;2023-05-19T02:23:23;97279.28;;;12.09;89.31
11936;BME280;6027;48.576;9.180;2023-05-19T02:25:49;97277.63;;;12.08;89.17
11936;BME280;6027;48.576;9.180;2023-05-19T02:28:15;97286.88;;;12.12;89.71
11936;BME280;6027;48.576;9.180;2023-05-19T02:30:40;97278.69;;;12.14;88.92
11936;BME280;6027;48.576;9.180;2023-05-19T02:33:05;97277.97;;;12.05;87.89
11936;BME280;6027;48.576;9.180;2023-05-19T02:35:31;97269.00;;;12.06;87.69
11936;BME280;6027;48.576;9.180;2023-05-19T02:37:58;97278.44;;;12.08;87.40
11936;BME280;6027;48.576;9.180;2023-05-19T02:40:23;97275.31;;;12.05;88.11
11936;BME280;6027;48.576;9.180;2023-05-19T02:42:49;97274.78;;;12.09;87.86
11936;BME280;6027;48.576;9.180;2023-05-19T02:45:14;97268.25;;;11.97;86.89
11936;BME280;6027;48.576;9.180;2023-05-19T02:47:40;97272.00;;;11.88;88.31
11936;BME280;6027;48.576;9.180;2023-05-19T02:50:06;97265.22;;;11.86;89.09
11936;BME280;6027;48.576;9.180;2023-05-19T02:52:32;97271.19;;;11.88;88.89
11936;BME280;6027;48.576;9.180;2023-05-19T02:54:57;97265.41;;;11.84;88.81
11936;BME280;6027;48.576;9.180;2023-05-19T02:57:23;97251.97;;;11.86;88.64
11936;BME280;6027;48.576;9.180;2023-05-19T02:59:48;97263.53;;;11.93;88.19
11936;BME280;6027;48.576;9.180;2023-05-19T03:02:14;97273.84;;;11.88;87.68
11936;BME280;6027;48.576;9.180;2023-05-19T03:04:59;97264.28;;;11.79;88.35
11936;BME280;6027;48.576;9.180;2023-05-19T03:07:27;97275.38;;;11.82;88.27
11936;BME280;6027;48.576;9.180;2023-05-19T03:09:53;97272.19;;;11.87;88.27
11936;BME280;6027;48.576;9.180;2023-05-19T03:12:19;97268.53;;;11.88;89.42
11936;BME280;6027;48.576;9.180;2023-05-19T03:14:44;97269.59;;;11.79;89.89
11936;BME280;6027;48.576;9.180;2023-05-19T03:17:10;97268.34;;;11.89;89.70
11936;BME280;6027;48.576;9.180;2023-05-19T03:19:36;97269.84;;;11.92;88.56
11936;BME280;6027;48.576;9.180;2023-05-19T03:22:02;97268.72;;;11.86;88.97
11936;BME280;6027;48.576;9.180;2023-05-19T03:24:27;97272.06;;;11.80;89.08
11936;BME280;6027;48.576;9.180;2023-05-19T03:26:53;97265.22;;;11.86;89.35
11936;BME280;6027;48.576;9.180;2023-05-19T03:29:18;97276.91;;;11.76;89.36
11936;BME280;6027;48.576;9.180;2023-05-19T03:31:44;97279.50;;;11.85;89.46
11936;BME280;6027;48.576;9.180;2023-05-19T03:34:09;97272.53;;;11.84;87.55
11936;BME280;6027;48.576;9.180;2023-05-19T03:36:35;97273.59;;;11.74;87.95
11936;BME280;6027;48.576;9.180;2023-05-19T03:39:06;97275.91;;;11.77;88.44
11936;BME280;6027;48.576;9.180;2023-05-19T03:41:32;97268.66;;;11.71;88.61
11936;BME280;6027;48.576;9.180;2023-05-19T03:43:57;97283.19;;;11.75;88.85
11936;BME280;6027;48.576;9.180;2023-05-19T03:46:23;97274.78;;;11.72;88.49
11936;BME280;6027;48.576;9.180;2023-05-19T03:48:48;97277.97;;;11.67;88.42
11936;BME280;6027;48.576;9.180;2023-05-19T03:51:14;97262.41;;;11.64;88.55
11936;BME280;6027;48.576;9.180;2023-05-19T03:53:39;97281.44;;;11.68;88.50
11936;BME280;6027;48.576;9.180;2023-05-19T03:56:05;97276.31;;;11.66;88.21
11936;BME280;6027;48.576;9.180;2023-05-19T03:58:32;97275.84;;;11.63;88.86
11936;BME280;6027;48.576;9.180;2023-05-19T04:00:58;97279.50;;;11.62;89.27
11936;BME280;6027;48.576;9.180;2023-05-19T04:03:23;97277.03;;;11.60;89.41
11936;BME280;6027;48.576;9.180;2023-05-19T04:05:51;97274.56;;;11.59;89.66
11936;BME280;6027;48.576;9.180;2023-05-19T04:08:16;97279.63;;;11.68;89.96
11936;BME280;6027;48.576;9.180;2023-05-19T04:10:41;97280.31;;;11.62;89.97
11936;BME280;6027;48.576;9.180;2023-05-19T04:13:07;97277.63;;;11.70;88.96
11936;BME280;6027;48.576;9.180;2023-05-19T04:15:32;97266.78;;;11.57;88.94
11936;BME280;6027;48.576;9.180;2023-05-19T04:17:58;97272.91;;;11.58;89.37
11936;BME280;6027;48.576;9.180;2023-05-19T04:20:23;97273.66;;;11.66;89.29
11936;BME280;6027;48.576;9.180;2023-05-19T04:22:48;97278.16;;;11.66;89.64
11936;BME280;6027;48.576;9.180;2023-05-19T04:25:14;97284.50;;;11.57;90.56
11936;BME280;6027;48.576;9.180;2023-05-19T04:27:40;97272.72;;;11.59;91.49
11936;BME280;6027;48.576;9.180;2023-05-19T04:30:05;97277.78;;;11.69;90.41
11936;BME280;6027;48.576;9.180;2023-05-19T04:32:31;97274.03;;;11.63;90.81
11936;BME280;6027;48.576;9.180;2023-05-19T04:34:57;97272.84;;;11.66;90.70
11936;BME280;6027;48.576;9.180;2023-05-19T04:37:25;97279.50;;;11.62;90.33
11936;BME280;6027;48.576;9.180;2023-05-19T04:39:51;97271.00;;;11.66;90.73
11936;BME280;6027;48.576;9.180;2023-05-19T04:42:17;97269.91;;;11.61;91.23
11936;BME280;6027;48.576;9.180;2023-05-19T04:44:46;97276.31;;;11.66;90.74
11936;BME280;6027;48.576;9.180;2023-05-19T04:47:14;97274.38;;;11.60;91.21
11936;BME280;6027;48.576;9.180;2023-05-19T04:49:39;97281.03;;;11.56;91.65
11936;BME280;6027;48.576;9.180;2023-05-19T04:52:07;97282.97;;;11.62;91.08
11936;BME280;6027;48.576;9.180;2023-05-19T04:54:35;97284.81;;;11.62;90.91
11936;BME280;6027;48.576;9.180;2023-05-19T04:57:01;97284.50;;;11.57;90.68
11936;BME280;6027;48.576;9.180;2023-05-19T04:59:26;97278.69;;;11.61;91.14
11936;BME280;6027;48.576;9.180;2023-05-19T05:01:51;97284.25;;;11.52;92.85
11936;BME280;6027;48.576;9.180;2023-05-19T05:04:18;97272.25;;;11.56;92.14
11936;BME280;6027;48.576;9.180;2023-05-19T05:06:43;97285.28;;;11.65;92.04
11936;BME280;6027;48.576;9.180;2023-05-19T05:09:16;97281.97;;;11.63;91.70
11936;BME280;6027;48.576;9.180;2023-05-19T05:11:42;97281.81;;;11.65;91.92
11936;BME280;6027;48.576;9.180;2023-05-19T05:14:08;97283.97;;;11.61;92.77
11936;BME280;6027;48.576;9.180;2023-05-19T05:16:34;97284.63;;;11.63;92.50
11936;BME280;6027;48.576;9.180;2023-05-19T05:19:00;97290.00;;;11.55;93.22
11936;BME280;6027;48.576;9.180;2023-05-19T05:21:27;97285.72;;;11.54;92.71
11936;BME280;6027;48.576;9.180;2023-05-19T05:23:52;97287.34;;;11.55;93.06
11936;BME280;6027;48.576;9.180;2023-05-19T05:26:19;97279.31;;;11.63;91.85
11936;BME280;6027;48.576;9.180;2023-05-19T05:28:50;97280.63;;;11.67;91.99
11936;BME280;6027;48.576;9.180;2023-05-19T05:31:16;97281.16;;;11.63;92.16
11936;BME280;6027;48.576;9.180;2023-05-19T05:33:41;97283.19;;;11.75;91.96
11936;BME280;6027;48.576;9.180;2023-05-19T05:36:07;97283.44;;;11.66;90.90
11936;BME280;6027;48.576;9.180;2023-05-19T05:38:32;97274.41;;;11.75;91.44
11936;BME280;6027;48.576;9.180;2023-05-19T05:40:58;97282.28;;;11.68;91.13
11936;BME280;6027;48.576;9.180;2023-05-19T05:43:23;97275.16;;;11.69;91.38
11936;BME280;6027;48.576;9.180;2023-05-19T05:45:49;97273.97;;;11.71;90.28
11936;BME280;6027;48.576;9.180;2023-05-19T05:48:15;97290.00;;;11.78;90.87
11936;BME280;6027;48.576;9.180;2023-05-19T05:50:42;97288.00;;;11.80;90.75
11936;BME280;6027;48.576;9.180;2023-05-19T05:53:08;97287.09;;;11.88;91.12
11936;BME280;6027;48.576;9.180;2023-05-19T05:55:34;97289.75;;;11.88;91.25
11936;BME280;6027;48.576;9.180;2023-05-19T05:57:59;97278.88;;;11.97;89.01
11936;BME280;6027;48.576;9.180;2023-05-19T06:00:27;97277.97;;;12.05;89.43
11936;BME280;6027;48.576;9.180;2023-05-19T06:02:52;97283.19;;;11.98;91.13
11936;BME280;6027;48.576;9.180;2023-05-19T06:05:18;97289.31;;;11.99;91.31
11936;BME280;6027;48.576;9.180;2023-05-19T06:07:44;97271.03;;;12.04;89.67
11936;BME280;6027;48.576;9.180;2023-05-19T06:10:10;97277.97;;;12.05;89.13
11936;BME280;6027;48.576;9.180;2023-05-19T06:12:35;97281.28;;;12.07;89.72
11936;BME280;6027;48.576;9.180;2023-05-19T06:15:06;97275.97;;;12.07;88.52
11936;BME280;6027;48.576;9.180;2023-05-19T06:17:32;97280.09;;;12.09;89.72
11936;BME280;6027;48.576;9.180;2023-05-19T06:20:00;97279.16;;;12.17;89.40
11936;BME280;6027;48.576;9.180;2023-05-19T06:22:25;97283.28;;;12.05;89.11
11936;BME280;6027;48.576;9.180;2023-05-19T06:24:52;97275.88;;;12.15;88.64
11936;BME280;6027;48.576;9.180;2023-05-19T06:27:17;97276.25;;;12.12;88.71
11936;BME280;6027;48.576;9.180;2023-05-19T06:29:43;97276.25;;;12.12;88.64
11936;BME280;6027;48.576;9.180;2023-05-19T06:32:08;97276.63;;;12.24;87.22
11936;BME280;6027;48.576;9.180;2023-05-19T06:34:34;97278.09;;;12.26;85.39
11936;BME280;6027;48.576;9.180;2023-05-19T06:36:59;97278.91;;;12.27;87.85
11936;BME280;6027;48.576;9.180;2023-05-19T06:39:26;97272.84;;;12.33;87.44
11936;BME280;6027;48.576;9.180;2023-05-19T06:41:52;97270.56;;;12.44;85.60
11936;BME280;6027;48.576;9.180;2023-05-19T06:44:17;97275.16;;;12.51;86.92
11936;BME280;6027;48.576;9.180;2023-05-19T06:46:42;97276.06;;;12.58;85.74
11936;BME280;6027;48.576;9.180;2023-05-19T06:49:09;97272.28;;;12.52;84.37
11936;BME280;6027;48.576;9.180;2023-05-19T06:51:35;97277.06;;;12.57;84.53
11936;BME280;6027;48.576;9.180;2023-05-19T06:54:00;97284.31;;;12.63;86.04
11936;BME280;6027;48.576;9.180;2023-05-19T06:56:26;97276.34;;;12.63;85.42
11936;BME280;6027;48.576;9.180;2023-05-19T06:58:51;97275.13;;;12.65;87.21
11936;BME280;6027;48.576;9.180;2023-05-19T07:01:17;97277.44;;;12.68;86.15
11936;BME280;6027;48.576;9.180;2023-05-19T07:03:42;97279.44;;;12.66;85.71
11936;BME280;6027;48.576;9.180;2023-05-19T07:06:07;97278.72;;;12.58;83.84
11936;BME280;6027;48.576;9.180;2023-05-19T07:08:33;97275.50;;;12.62;85.09
11936;BME280;6027;48.576;9.180;2023-05-19T07:10:59;97281.66;;;12.63;85.78
11936;BME280;6027;48.576;9.180;2023-05-19T07:13:24;97276.97;;;12.65;86.21
11936;BME280;6027;48.576;9.180;2023-05-19T07:15:53;97280.63;;;12.64;85.68
11936;BME280;6027;48.576;9.180;2023-05-19T07:18:21;97276.06;;;12.58;83.64
11936;BME280;6027;48.576;9.180;2023-05-19T07:20:47;97269.72;;;12.73;85.95
11936;BME280;6027;48.576;9.180;2023-05-19T07:23:12;97278.50;;;12.74;85.91
11936;BME280;6027;48.576;9.180;2023-05-19T07:25:38;97270.63;;;12.80;84.53
11936;BME280;6027;48.576;9.180;2023-05-19T07:28:03;97273.81;;;12.76;83.17
11936;BME280;6027;48.576;9.180;2023-05-19T07:30:29;97269.53;;;12.75;85.35
11936;BME280;6027;48.576;9.180;2023-05-19T07:32:54;97271.34;;;12.74;87.06
11936;BME280;6027;48.576;9.180;2023-05-19T07:35:20;97275.84;;;12.74;85.43
11936;BME280;6027;48.576;9.180;2023-05-19T07:37:50;97269.78;;;12.80;84.77
11936;BME280;6027;48.576;9.180;2023-05-19T07:40:17;97269.06;;;12.86;85.37
11936;BME280;6027;48.576;9.180;2023-05-19T07:42:42;97275.63;;;12.90;85.59
11936;BME280;6027;48.576;9.180;2023-05-19T07:45:09;97272.34;;;12.88;84.48
11936;BME280;6027;48.576;9.180;2023-05-19T07:47:35;97272.72;;;12.85;82.56
11936;BME280;6027;48.576;9.180;2023-05-19T07:50:00;97274.09;;;12.81;82.72
11936;BME280;6027;48.576;9.180;2023-05-19T07:52:25;97275.56;;;12.84;83.22
11936;BME280;6027;48.576;9.180;2023-05-19T07:54:51;97272.19;;;12.75;83.00
11936;BME280;6027;48.576;9.180;2023-05-19T07:57:17;97270.72;;;12.72;82.65
11936;BME280;6027;48.576;9.180;2023-05-19T08:02:10;97254.69;;;12.80;84.04
11936;BME280;6027;48.576;9.180;2023-05-19T08:04:36;97262.09;;;12.85;84.03
11936;BME280;6027;48.576;9.180;2023-05-19T08:07:01;97268.22;;;12.86;84.76
11936;BME280;6027;48.576;9.180;2023-05-19T08:09:27;97264.28;;;12.82;84.79
11936;BME280;6027;48.576;9.180;2023-05-19T08:11:53;97261.91;;;12.72;83.48
11936;BME280;6027;48.576;9.180;2023-05-19T08:14:18;97263.47;;;12.81;85.58
11936;BME280;6027;48.576;9.180;2023-05-19T08:16:48;97259.13;;;12.95;84.28
11936;BME280;6027;48.576;9.180;2023-05-19T08:19:13;97260.41;;;12.99;83.90
11936;BME280;6027;48.576;9.180;2023-05-19T08:21:39;97257.94;;;12.97;81.03
11936;BME280;6027;48.576;9.180;2023-05-19T08:24:06;97260.22;;;13.00;81.67
11936;BME280;6027;48.576;9.180;2023-05-19T08:26:32;97252.78;;;12.96;81.47
11936;BME280;6027;48.576;9.180;2023-05-19T08:28:57;97251.97;;;12.95;82.69
11936;BME280;6027;48.576;9.180;2023-05-19T08:31:23;97257.19;;;13.03;84.00
11936;BME280;6027;48.576;9.180;2023-05-19T08:33:49;97252.63;;;12.97;82.47
11936;BME280;6027;48.576;9.180;2023-05-19T08:36:14;97249.66;;;13.07;81.77
11936;BME280;6027;48.576;9.180;2023-05-19T08:38:39;97245.41;;;13.12;81.84
11936;BME280;6027;48.576;9.180;2023-05-19T08:41:05;97240.03;;;13.06;82.06
11936;BME280;6027;48.576;9.180;2023-05-19T08:43:31;97241.88;;;13.05;82.32
11936;BME280;6027;48.576;9.180;2023-05-19T08:45:58;97237.13;;;13.01;81.68
11936;BME280;6027;48.576;9.180;2023-05-19T08:48:28;97244.09;;;13.02;83.51
11936;BME280;6027;48.576;9.180;2023-05-19T08:53:28;97248.88;;;13.13;81.82
11936;BME280;6027;48.576;9.180;2023-05-19T08:56:14;97242.56;;;13.14;81.03
11936;BME280;6027;48.576;9.180;2023-05-19T08:58:41;97245.53;;;13.04;80.59
11936;BME280;6027;48.576;9.180;2023-05-19T09:01:14;97238.94;;;13.00;82.18
11936;BME280;6027;48.576;9.180;2023-05-19T09:03:44;97246.00;;;13.08;80.62
11936;BME280;6027;48.576;9.180;2023-05-19T09:06:10;97241.41;;;13.17;81.32
11936;BME280;6027;48.576;9.180;2023-05-19T09:08:42;97235.41;;;13.14;80.98
11936;BME280;6027;48.576;9.180;2023-05-19T09:11:08;97243.88;;;13.18;80.85
11936;BME280;6027;48.576;9.180;2023-05-19T09:13:34;97238.06;;;13.14;78.96
11936;BME280;6027;48.576;9.180;2023-05-19T09:16:00;97234.97;;;13.11;81.25
11936;BME280;6027;48.576;9.180;2023-05-19T09:18:26;97238.75;;;13.17;79.29
11936;BME280;6027;48.576;9.180;2023-05-19T09:20:59;97237.53;;;13.19;79.34
11936;BME280;6027;48.576;9.180;2023-05-19T09:23:31;97240.38;;;13.18;79.95
11936;BME280;6027;48.576;9.180;2023-05-19T09:26:04;97243.31;;;13.23;80.36
11936;BME280;6027;48.576;9.180;2023-05-19T09:28:35;97231.59;;;13.17;79.04
11936;BME280;6027;48.576;9.180;2023-05-19T09:31:09;97237.53;;;13.19;78.64
11936;BME280;6027;48.576;9.180;2023-05-19T09:33:36;97230.94;;;13.15;80.03
11936;BME280;6027;48.576;9.180;2023-05-19T09:36:03;97232.94;;;13.13;79.07
11936;BME280;6027;48.576;9.180;2023-05-19T09:38:38;97241.59;;;13.15;80.39
11936;BME280;6027;48.576;9.180;2023-05-19T09:41:05;97238.06;;;13.14;78.47
11936;BME280;6027;48.576;9.180;2023-05-19T09:43:32;97233.41;;;13.17;78.67
11936;BME280;6027;48.576;9.180;2023-05-19T09:46:05;97229.56;;;13.19;79.80
11936;BME280;6027;48.576;9.180;2023-05-19T09:48:32;97219.19;;;13.24;80.74
11936;BME280;6027;48.576;9.180;2023-05-19T09:51:03;97227.28;;;13.16;80.99
11936;BME280;6027;48.576;9.180;2023-05-19T09:53:30;97224.06;;;13.21;81.81
11936;BME280;6027;48.576;9.180;2023-05-19T09:55:57;97230.25;;;13.28;81.88
11936;BME280;6027;48.576;9.180;2023-05-19T09:58:23;97225.25;;;13.18;79.92
11936;BME280;6027;48.576;9.180;2023-05-19T10:00:49;97220.56;;;13.20;79.44
11936;BME280;6027;48.576;9.180;2023-05-19T10:03:15;97230.19;;;13.21;80.71
11936;BME280;6027;48.576;9.180;2023-05-19T10:05:43;97219.47;;;13.14;82.33
11936;BME280;6027;48.576;9.180;2023-05-19T10:08:10;97219.00;;;13.26;80.65
11936;BME280;6027;48.576;9.180;2023-05-19T10:10:36;97229.00;;;13.24;81.31
11936;BME280;6027;48.576;9.180;2023-05-19T10:13:03;97240.47;;;13.24;80.01
11936;BME280;6027;48.576;9.180;2023-05-19T10:15:29;97236.78;;;13.25;78.41
11936;BME280;6027;48.576;9.180;2023-05-19T10:17:55;97235.34;;;13.23;78.73
11936;BME280;6027;48.576;9.180;2023-05-19T10:20:21;97234.69;;;13.21;77.70
11936;BME280;6027;48.576;9.180;2023-05-19T10:22:46;97232.22;;;13.19;78.19
11936;BME280;6027;48.576;9.180;2023-05-19T10:25:13;97234.78;;;13.12;78.59
11936;BME280;6027;48.576;9.180;2023-05-19T10:27:49;97230.84;;;13.08;78.61
11936;BME280;6027;48.576;9.180;2023-05-19T10:30:20;97213.31;;;13.14;79.60
11936;BME280;6027;48.576;9.180;2023-05-19T10:32:50;97225.25;;;13.18;80.54
11936;BME280;6027;48.576;9.180;2023-05-19T10:38:32;97233.03;;;13.20;78.08
11936;BME280;6027;48.576;9.180;2023-05-19T10:46:26;97228.81;;;13.25;79.02
11936;BME280;6027;48.576;9.180;2023-05-19T10:48:53;97229.88;;;13.31;80.47
11936;BME280;6027;48.576;9.180;2023-05-19T10:51:18;97221.13;;;13.37;80.81
11936;BME280;6027;48.576;9.180;2023-05-19T10:53:44;97219.41;;;13.51;78.50
11936;BME280;6027;48.576;9.180;2023-05-19T10:56:28;97224.28;;;13.47;79.29
11936;BME280;6027;48.576;9.180;2023-05-19T10:58:58;97219.78;;;13.47;76.89
11936;BME280;6027;48.576;9.180;2023-05-19T11:01:34;97220.13;;;13.38;76.54
11936;BME280;6027;48.576;9.180;2023-05-19T11:04:06;97224.06;;;13.42;77.46
11936;BME280;6027;48.576;9.180;2023-05-19T11:06:35;97222.66;;;13.46;77.11
11936;BME280;6027;48.576;9.180;2023-05-19T11:09:11;97225.69;;;13.43;76.14
11936;BME280;6027;48.576;9.180;2023-05-19T11:11:53;97225.09;;;13.47;76.71
11936;BME280;6027;48.576;9.180;2023-05-19T11:14:25;97225.94;;;13.48;76.51
11936;BME280;6027;48.576;9.180;2023-05-19T11:16:57;97222.66;;;13.46;76.53
11936;BME280;6027;48.576;9.180;2023-05-19T11:19:27;97220.38;;;13.43;76.11
11936;BME280;6027;48.576;9.180;2023-05-19T11:21:54;97218.03;;;13.33;77.03
11936;BME280;6027;48.576;9.180;2023-05-19T11:29:47;97229.47;;;13.55;76.49
11936;BME280;6027;48.576;9.180;2023-05-19T11:32:14;97227.00;;;13.54;76.58
11936;BME280;6027;48.576;9.180;2023-05-19T11:34:40;97225.16;;;13.54;77.66
11936;BME280;6027;48.576;9.180;2023-05-19T11:37:06;97222.69;;;13.53;78.66
11936;BME280;6027;48.576;9.180;2023-05-19T11:39:32;97228.84;;;13.53;75.18
11936;BME280;6027;48.576;9.180;2023-05-19T11:41:57;97220.28;;;13.58;74.77
11936;BME280;6027;48.576;9.180;2023-05-19T11:44:23;97222.69;;;13.53;75.14
11936;BME280;6027;48.576;9.180;2023-05-19T11:46:48;97228.66;;;13.55;75.71
11936;BME280;6027;48.576;9.180;2023-05-19T11:49:14;97224.72;;;13.51;76.57
11936;BME280;6027;48.576;9.180;2023-05-19T11:51:44;97223.13;;;13.56;75.09
11936;BME280;6027;48.576;9.180;2023-05-19T11:54:10;97218.06;;;13.61;76.35
11936;BME280;6027;48.576;9.180;2023-05-19T11:56:42;97207.66;;;13.66;77.74
11936;BME280;6027;48.576;9.180;2023-05-19T11:59:08;97214.63;;;13.67;75.55
11936;BME280;6027;48.576;9.180;2023-05-19T12:01:34;97212.97;;;13.66;77.46
11936;BME280;6027;48.576;9.180;2023-05-19T12:04:01;97207.09;;;13.71;76.10
11936;BME280;6027;48.576;9.180;2023-05-19T12:06:27;97215.03;;;13.64;74.54
11936;BME280;6027;48.576;9.180;2023-05-19T12:08:53;97216.88;;;13.64;76.06
11936;BME280;6027;48.576;9.180;2023-05-19T12:11:19;97214.03;;;13.65;76.47
11936;BME280;6027;48.576;9.180;2023-05-19T12:13:46;97214.63;;;13.67;76.24
11936;BME280;6027;48.576;9.180;2023-05-19T12:16:12;97214.69;;;13.74;75.86
11936;BME280;6027;48.576;9.180;2023-05-19T12:18:38;97215.75;;;13.79;75.09
11936;BME280;6027;48.576;9.180;2023-05-19T12:21:06;97220.81;;;13.74;76.25
11936;BME280;6027;48.576;9.180;2023-05-19T12:23:32;97225.00;;;13.83;75.93
11936;BME280;6027;48.576;9.180;2023-05-19T12:25:58;97220.72;;;13.89;78.20
11936;BME280;6027;48.576;9.180;2023-05-19T12:28:25;97224.41;;;13.88;77.37
11936;BME280;6027;48.576;9.180;2023-05-19T12:30:52;97223.34;;;13.82;76.68
11936;BME280;6027;48.576;9.180;2023-05-19T12:33:18;97230.94;;;13.86;74.96
11936;BME280;6027;48.576;9.180;2023-05-19T12:35:47;97224.81;;;13.85;73.52
11936;BME280;6027;48.576;9.180;2023-05-19T12:38:14;97229.91;;;13.87;74.47
11936;BME280;6027;48.576;9.180;2023-05-19T12:40:41;97230.31;;;13.83;74.39
11936;BME280;6027;48.576;9.180;2023-05-19T12:43:07;97235.66;;;13.83;75.00
11936;BME280;6027;48.576;9.180;2023-05-19T12:45:38;97236.94;;;13.94;74.52
11936;BME280;6027;48.576;9.180;2023-05-19T12:48:05;97230.34;;;13.90;74.43
11936;BME280;6027;48.576;9.180;2023-05-19T12:50:35;97235.56;;;14.05;73.04
11936;BME280;6027;48.576;9.180;2023-05-19T12:53:01;97228.00;;;14.02;74.49
11936;BME280;6027;48.576;9.180;2023-05-19T12:55:28;97233.94;;;14.04;75.43
11936;BME280;6027;48.576;9.180;2023-05-19T12:57:54;97232.69;;;14.00;73.71
11936;BME280;6027;48.576;9.180;2023-05-19T13:00:22;97219.56;;;13.98;74.59
11936;BME280;6027;48.576;9.180;2023-05-19T13:03:07;97224.06;;;13.98;73.74
11936;BME280;6027;48.576;9.180;2023-05-19T13:05:40;97228.38;;;13.99;74.99
11936;BME280;6027;48.576;9.180;2023-05-19T13:08:15;97220.22;;;14.07;75.69
11936;BME280;6027;48.576;9.180;2023-05-19T13:10:42;97219.19;;;14.08;75.05
11936;BME280;6027;48.576;9.180;2023-05-19T13:13:08;97217.41;;;14.15;76.28
11936;BME280;6027;48.576;9.180;2023-05-19T13:15:37;97215.00;;;14.20;74.24
11936;BME280;6027;48.576;9.180;2023-05-19T13:18:04;97213.16;;;14.21;72.82
11936;BME280;6027;48.576;9.180;2023-05-19T13:20:30;97208.47;;;14.23;74.02
11936;BME280;6027;48.576;9.180;2023-05-19T13:22:57;97218.09;;;14.30;72.92
11936;BME280;6027;48.576;9.180;2023-05-19T13:25:23;97214.38;;;14.18;72.29
11936;BME280;6027;48.576;9.180;2023-05-19T13:27:48;97211.00;;;14.03;73.22
11936;BME280;6027;48.576;9.180;2023-05-19T13:30:14;97206.88;;;14.00;74.28
11936;BME280;6027;48.576;9.180;2023-05-19T13:32:44;97200.81;;;14.13;73.61
11936;BME280;6027;48.576;9.180;2023-05-19T13:35:12;97211.50;;;14.20;73.21
11936;BME280;6027;48.576;9.180;2023-05-19T13:37:38;97205.13;;;14.14;74.43
11936;BME280;6027;48.576;9.180;2023-05-19T13:40:04;97207.19;;;14.18;75.61
11936;BME280;6027;48.576;9.180;2023-05-19T13:42:31;97204.97;;;14.22;75.07
11936;BME280;6027;48.576;9.180;2023-05-19T13:44:57;97200.22;;;14.17;73.95
11936;BME280;6027;48.576;9.180;2023-05-19T13:47:22;97196.56;;;14.25;75.53
11936;BME280;6027;48.576;9.180;2023-05-19T13:49:48;97193.91;;;14.25;75.09
11936;BME280;6027;48.576;9.180;2023-05-19T13:52:14;97195.38;;;14.34;74.33
11936;BME280;6027;48.576;9.180;2023-05-19T13:54:39;97193.31;;;14.30;75.63